Huvudsida
METAR-TAF:

METAR-TAF

Flygplatser :

Oljeplattform Norsk Hydro

Oseberg, Norge

latitud: 60-29-29N, longitud: 2-49-32E, höjd: 158 m

Aktuellt väderrapport

Denna rapport gjordes för 59 minuter sedan, klockan 17:50 UTC
Vind 31 kt från syd/sydost
Temperatur 5°C
Fuktighet 75%
Tryck 1027 hPa
Sikt 10 km eller mer
Mulet på en höjd av 2000 ft

METAR: ENOA 131750Z 16031KT 9999 OVC020 05/01 Q1027 W///S5

Tid: 19:49 (18:49 UTC)

Väderprognos

Prognos gäller från 13 kl. 18 UTC till 14 kl. 18 UTC
Vind 30 kt från syd/sydost
Sikt 10 km eller mer
Få moln på en höjd av 1800 ft, Högtornande cumulus.
Brutna moln på en höjd av 2500 ft
lätta regnskurar

TAF: ENOA 1318/1418 16030KT 9999 -SHRA FEW018TCU BKN025

Aktuella väderrapporter och prognoser från 4000 flygplatser (METAR- och TAF-rapporter).

De tillgängliga stationerna syns som gula och röda prickar på kartan.

För musen över prickarna för att se namnen på stationerna.

Klicka sedan för att få väderrapporter och prognoser.

För att ändra kartan: Klicka på de gröna knapparna med ett svart kors på för att zooma in; den gröna knappen med ett streck på för att zooma ut; eller på de gröna pilarna för angränsande kartor.


METAR-TAF: